Time;durP1;ratioP1;P1;durP2;ratioP2;P2;SDS_P1;SDS_P2;PMS_P1;PMS_P2;Temp;Humidity;BMP_temperature;BMP_pressure;BME280_temperature;BME280_humidity;BME280_pressure;Samples;Min_cycle;Max_cycle;Signal;HPM_P1;HPM_P2
2022/11/18 00:00:33;;;;;;;51.53;33.90;;;;;;;;;;5033625;28;20037;-75
2022/11/18 00:02:59;;;;;;;44.50;31.23;;;;;;;;;;5033178;28;20057;-73
2022/11/18 00:05:25;;;;;;;46.83;33.08;;;;;;;;;;5033176;28;20472;-76
2022/11/18 00:07:51;;;;;;;47.90;32.45;;;;;;;;;;5033429;28;20021;-77
2022/11/18 00:10:17;;;;;;;45.78;32.00;;;;;;;;;;5033340;28;20025;-76
2022/11/18 00:15:28;;;;;;;38.75;27.23;;;;;;;;;;5033066;28;20075;-77
2022/11/18 00:17:54;;;;;;;32.47;25.90;;;;;;;;;;5032322;28;20033;-76
2022/11/18 00:20:20;;;;;;;37.92;26.85;;;;;;;;;;5032925;28;20526;-77
2022/11/18 00:22:46;;;;;;;38.20;26.25;;;;;;;;;;5032965;28;20048;-76
2022/11/18 00:25:12;;;;;;;36.60;24.35;;;;;;;;;;5033139;28;20417;-77
2022/11/18 00:27:38;;;;;;;34.20;23.17;;;;;;;;;;5032963;28;20017;-77
2022/11/18 00:30:05;;;;;;;29.92;21.70;;;;;;;;;;5033431;28;20096;-77
2022/11/18 00:32:31;;;;;;;32.95;22.45;;;;;;;;;;5032663;28;20025;-76
2022/11/18 00:34:57;;;;;;;29.92;20.58;;;;;;;;;;5032155;28;20033;-77
2022/11/18 00:37:23;;;;;;;31.45;21.60;;;;;;;;;;5032550;28;20528;-77
2022/11/18 00:39:49;;;;;;;34.03;23.17;;;;;;;;;;5032899;28;20480;-77
2022/11/18 00:44:59;;;;;;;31.15;22.48;;;;;;;;;;5032966;28;20091;-77
2022/11/18 00:47:25;;;;;;;29.30;21.40;;;;;;;;;;5032531;28;20025;-76
2022/11/18 00:49:52;;;;;;;29.63;20.73;;;;;;;;;;5032868;28;20017;-77
2022/11/18 00:52:18;;;;;;;28.60;21.08;;;;;;;;;;5032512;28;20022;-76
2022/11/18 00:54:44;;;;;;;27.15;18.27;;;;;;;;;;5032510;28;20025;-72
2022/11/18 00:57:10;;;;;;;23.92;18.05;;;;;;;;;;5025587;28;20036;-75
2022/11/18 00:59:36;;;;;;;24.67;18.13;;;;;;;;;;5025860;28;20022;-71
2022/11/18 01:02:02;;;;;;;21.80;17.38;;;;;;;;;;5027263;28;20050;-76
2022/11/18 01:04:28;;;;;;;19.92;15.60;;;;;;;;;;5023714;28;20117;-71
2022/11/18 01:06:54;;;;;;;20.85;15.35;;;;;;;;;;5032415;28;20484;-75
2022/11/18 01:09:20;;;;;;;27.25;18.02;;;;;;;;;;5032383;28;20105;-76
2022/11/18 01:14:31;;;;;;;34.15;20.60;;;;;;;;;;5032252;28;20047;-74
2022/11/18 01:16:57;;;;;;;27.25;18.95;;;;;;;;;;5032430;28;20037;-76
2022/11/18 01:19:24;;;;;;;23.88;18.05;;;;;;;;;;5032370;28;20025;-75
2022/11/18 01:21:50;;;;;;;24.80;18.27;;;;;;;;;;5032243;28;20021;-75
2022/11/18 01:24:16;;;;;;;29.50;20.95;;;;;;;;;;5032001;28;20022;-76
2022/11/18 01:26:42;;;;;;;33.35;21.23;;;;;;;;;;5032435;28;20038;-71
2022/11/18 01:29:08;;;;;;;28.52;21.15;;;;;;;;;;5031166;28;20034;-75
2022/11/18 01:31:34;;;;;;;28.98;19.55;;;;;;;;;;5032595;28;20068;-75
2022/11/18 01:34:01;;;;;;;22.30;17.70;;;;;;;;;;5032175;28;20026;-76
2022/11/18 01:36:27;;;;;;;23.23;16.33;;;;;;;;;;5032236;28;20018;-75
2022/11/18 01:38:54;;;;;;;21.40;14.02;;;;;;;;;;5031973;28;20021;-75
2022/11/18 01:41:22;;;;;;;19.13;14.77;;;;;;;;;;5032527;28;20022;-75
2022/11/18 01:43:48;;;;;;;20.33;14.68;;;;;;;;;;5032054;28;20029;-74
2022/11/18 01:46:14;;;;;;;21.67;14.98;;;;;;;;;;5031520;28;20030;-75
2022/11/18 01:48:40;;;;;;;21.42;15.52;;;;;;;;;;5035614;28;20483;-74
2022/11/18 01:51:11;;;;;;;21.98;14.23;;;;;;;;;;5035755;28;20025;-72
2022/11/18 01:53:39;;;;;;;22.08;13.98;;;;;;;;;;5035494;28;20040;-75
2022/11/18 01:56:13;;;;;;;34.50;19.88;;;;;;;;;;5035783;28;20035;-75
2022/11/18 01:58:48;;;;;;;15.98;10.82;;;;;;;;;;5035519;28;20096;-76
2022/11/18 02:01:14;;;;;;;13.25;10.43;;;;;;;;;;5035691;28;20029;-75
2022/11/18 02:03:40;;;;;;;14.40;10.70;;;;;;;;;;5035329;28;20049;-75
2022/11/18 02:06:08;;;;;;;16.65;11.52;;;;;;;;;;5035539;28;20037;-76
2022/11/18 02:08:36;;;;;;;16.05;11.30;;;;;;;;;;5035311;28;20490;-76
2022/11/18 02:11:03;;;;;;;16.42;12.77;;;;;;;;;;5035498;28;20056;-76
2022/11/18 02:13:31;;;;;;;16.58;12.23;;;;;;;;;;5035272;28;20125;-77
2022/11/18 02:16:02;;;;;;;18.67;12.05;;;;;;;;;;5035399;28;20128;-76
2022/11/18 02:18:35;;;;;;;14.10;10.50;;;;;;;;;;5035283;28;20025;-72
2022/11/18 02:21:08;;;;;;;16.55;11.75;;;;;;;;;;5035188;28;20025;-75
2022/11/18 02:24:10;;;;;;;14.43;11.63;;;;;;;;;;5035194;28;20033;-77
2022/11/18 02:26:42;;;;;;;23.92;15.20;;;;;;;;;;5032846;28;20045;-77
2022/11/18 02:29:15;;;;;;;20.67;14.13;;;;;;;;;;5032875;28;20619;-76
2022/11/18 02:31:46;;;;;;;19.08;13.55;;;;;;;;;;5032759;28;20552;-77
2022/11/18 02:34:12;;;;;;;25.40;16.60;;;;;;;;;;5032970;28;20496;-77
2022/11/18 02:36:44;;;;;;;35.53;25.17;;;;;;;;;;5032526;28;20029;-76
2022/11/18 02:39:19;;;;;;;27.75;18.52;;;;;;;;;;5032896;28;20067;-77
2022/11/18 02:41:46;;;;;;;23.67;17.02;;;;;;;;;;5032706;28;20084;-76
2022/11/18 02:44:16;;;;;;;26.75;18.42;;;;;;;;;;5032651;28;20030;-76
2022/11/18 02:46:44;;;;;;;24.90;17.15;;;;;;;;;;5032572;28;20080;-77
2022/11/18 02:49:15;;;;;;;28.35;19.73;;;;;;;;;;5032349;28;20384;-73
2022/11/18 02:51:42;;;;;;;41.07;26.73;;;;;;;;;;5032451;28;20028;-76
2022/11/18 02:54:10;;;;;;;49.22;31.45;;;;;;;;;;5032386;28;20025;-77
2022/11/18 02:56:36;;;;;;;45.17;28.42;;;;;;;;;;5032643;28;20029;-75
2022/11/18 02:59:02;;;;;;;40.67;25.85;;;;;;;;;;5031270;28;20025;-72
2022/11/18 03:01:29;;;;;;;37.17;24.83;;;;;;;;;;5030952;28;20095;-77
2022/11/18 03:03:56;;;;;;;26.50;19.10;;;;;;;;;;5034504;28;20018;-77
2022/11/18 03:06:31;;;;;;;23.23;15.73;;;;;;;;;;5034888;28;20033;-76
2022/11/18 03:09:20;;;;;;;22.17;16.35;;;;;;;;;;5032960;28;20495;-72
2022/11/18 03:12:05;;;;;;;22.20;15.85;;;;;;;;;;5034341;28;20107;-77
2022/11/18 03:14:40;;;;;;;23.05;16.63;;;;;;;;;;5034224;28;20033;-76
2022/11/18 03:17:10;;;;;;;20.15;15.60;;;;;;;;;;5034165;28;20091;-74
2022/11/18 03:19:45;;;;;;;27.10;19.13;;;;;;;;;;5034110;28;20034;-72
2022/11/18 03:22:30;;;;;;;30.13;21.02;;;;;;;;;;5034094;28;20014;-75
2022/11/18 03:25:08;;;;;;;20.95;16.63;;;;;;;;;;5034302;28;20041;-76
2022/11/18 03:27:38;;;;;;;26.30;17.55;;;;;;;;;;5033833;28;20088;-75
2022/11/18 03:30:12;;;;;;;23.08;17.60;;;;;;;;;;5034111;28;20101;-76
2022/11/18 03:32:41;;;;;;;33.03;23.50;;;;;;;;;;5032692;28;20115;-76
2022/11/18 03:35:11;;;;;;;40.78;26.15;;;;;;;;;;5034183;28;20088;-77
2022/11/18 03:37:38;;;;;;;59.75;41.08;;;;;;;;;;5033643;28;20067;-77
2022/11/18 03:40:24;;;;;;;78.28;51.13;;;;;;;;;;5033841;28;20070;-75
2022/11/18 03:42:54;;;;;;;81.32;55.35;;;;;;;;;;5033563;28;20057;-77
2022/11/18 03:45:24;;;;;;;82.18;58.13;;;;;;;;;;5033649;28;20472;-77
2022/11/18 03:48:00;;;;;;;83.82;57.95;;;;;;;;;;5033499;28;20079;-76
2022/11/18 03:50:29;;;;;;;91.35;61.38;;;;;;;;;;5033454;28;20075;-76
2022/11/18 03:52:55;;;;;;;86.57;58.70;;;;;;;;;;5033356;28;20392;-76
2022/11/18 03:55:23;;;;;;;81.45;59.30;;;;;;;;;;5033640;28;20353;-77
2022/11/18 03:57:54;;;;;;;87.07;61.75;;;;;;;;;;5033523;28;20021;-76
2022/11/18 04:00:20;;;;;;;95.20;63.60;;;;;;;;;;5033435;28;20056;-76
2022/11/18 04:02:47;;;;;;;96.40;70.90;;;;;;;;;;5033274;28;20275;-75
2022/11/18 04:05:14;;;;;;;97.68;70.20;;;;;;;;;;5032943;28;20040;-76
2022/11/18 04:07:50;;;;;;;96.90;71.85;;;;;;;;;;5033237;28;20021;-76
2022/11/18 04:10:36;;;;;;;92.45;66.85;;;;;;;;;;5032824;28;20124;-76
2022/11/18 04:13:19;;;;;;;89.55;67.57;;;;;;;;;;5033170;28;20029;-74
2022/11/18 04:15:45;;;;;;;128.23;92.53;;;;;;;;;;5032941;28;20021;-75
2022/11/18 04:18:11;;;;;;;101.35;71.13;;;;;;;;;;5033157;28;20100;-75
2022/11/18 04:20:38;;;;;;;87.75;64.65;;;;;;;;;;5032921;28;20028;-75
2022/11/18 04:23:05;;;;;;;92.85;66.75;;;;;;;;;;5032866;28;20028;-75
2022/11/18 04:25:31;;;;;;;86.45;61.35;;;;;;;;;;5032952;28;20068;-75
2022/11/18 04:27:57;;;;;;;90.72;65.30;;;;;;;;;;5033513;28;20017;-75
2022/11/18 04:30:23;;;;;;;90.97;62.05;;;;;;;;;;5032643;28;20136;-74
2022/11/18 04:32:49;;;;;;;87.70;61.45;;;;;;;;;;5033116;28;20483;-76
2022/11/18 04:35:15;;;;;;;82.25;56.60;;;;;;;;;;5032877;28;20072;-75
2022/11/18 04:37:41;;;;;;;80.30;57.42;;;;;;;;;;5032831;28;20017;-75
2022/11/18 04:40:08;;;;;;;87.20;60.42;;;;;;;;;;5032763;28;20456;-75
2022/11/18 04:42:34;;;;;;;97.68;67.78;;;;;;;;;;5032721;28;20025;-76
2022/11/18 04:45:00;;;;;;;89.13;62.70;;;;;;;;;;5032607;28;20108;-76
2022/11/18 04:47:26;;;;;;;79.53;56.42;;;;;;;;;;5031584;28;20039;-76
2022/11/18 04:49:52;;;;;;;78.05;54.40;;;;;;;;;;5032522;28;20075;-76
2022/11/18 04:52:18;;;;;;;75.53;53.83;;;;;;;;;;5032808;28;20026;-76
2022/11/18 04:54:44;;;;;;;79.28;52.40;;;;;;;;;;5031118;28;20033;-75
2022/11/18 04:57:10;;;;;;;75.32;53.40;;;;;;;;;;5032745;28;20431;-75
2022/11/18 04:59:37;;;;;;;77.72;53.75;;;;;;;;;;5032364;28;20022;-75
2022/11/18 05:02:03;;;;;;;75.97;52.05;;;;;;;;;;5032705;28;20041;-74
2022/11/18 05:04:30;;;;;;;75.05;54.33;;;;;;;;;;5032577;28;20061;-76
2022/11/18 05:06:57;;;;;;;73.82;52.50;;;;;;;;;;5032423;28;20032;-75
2022/11/18 05:09:23;;;;;;;85.95;54.90;;;;;;;;;;5032467;28;20056;-72
2022/11/18 05:14:34;;;;;;;74.55;52.78;;;;;;;;;;5032580;28;20117;-76
2022/11/18 05:17:01;;;;;;;74.63;51.35;;;;;;;;;;5032166;28;20104;-76
2022/11/18 05:19:27;;;;;;;77.90;54.88;;;;;;;;;;5031246;28;20026;-75
2022/11/18 05:21:53;;;;;;;72.22;52.88;;;;;;;;;;5033940;28;20070;-74
2022/11/18 05:24:20;;;;;;;71.25;54.17;;;;;;;;;;5036331;28;20028;-75
2022/11/18 05:26:46;;;;;;;67.15;52.17;;;;;;;;;;5036211;28;20030;-76
2022/11/18 05:29:12;;;;;;;80.25;55.55;;;;;;;;;;5034994;28;20159;-76
2022/11/18 05:31:38;;;;;;;80.18;54.03;;;;;;;;;;5036284;28;20108;-76
2022/11/18 05:34:04;;;;;;;81.40;57.05;;;;;;;;;;5035337;28;20436;-75
2022/11/18 05:36:30;;;;;;;74.43;55.55;;;;;;;;;;5036162;28;20111;-76
2022/11/18 05:39:00;;;;;;;79.57;57.10;;;;;;;;;;5036005;28;20025;-73
2022/11/18 05:44:10;;;;;;;96.60;71.10;;;;;;;;;;5035815;28;20028;-75
2022/11/18 05:46:37;;;;;;;102.88;71.00;;;;;;;;;;5035531;28;20091;-72
2022/11/18 05:49:03;;;;;;;183.40;131.48;;;;;;;;;;5035718;28;20048;-75
2022/11/18 05:51:29;;;;;;;115.88;82.82;;;;;;;;;;5035593;28;20487;-75
2022/11/18 05:53:55;;;;;;;103.53;72.93;;;;;;;;;;5036088;28;20025;-71
2022/11/18 05:56:30;;;;;;;106.30;74.22;;;;;;;;;;5035590;28;20064;-72
2022/11/18 05:58:56;;;;;;;100.88;73.25;;;;;;;;;;5035539;28;20025;-76
2022/11/18 06:01:27;;;;;;;91.88;69.35;;;;;;;;;;5035612;28;20471;-76
2022/11/18 06:03:53;;;;;;;95.80;70.63;;;;;;;;;;5035714;28;20034;-73
2022/11/18 06:06:21;;;;;;;99.68;72.18;;;;;;;;;;5035376;28;20049;-76
2022/11/18 06:08:51;;;;;;;94.00;68.22;;;;;;;;;;5035182;28;20495;-75
2022/11/18 06:11:19;;;;;;;94.78;70.63;;;;;;;;;;5035286;28;20032;-76
2022/11/18 06:13:51;;;;;;;100.10;72.18;;;;;;;;;;5035081;28;20403;-75
2022/11/18 06:16:19;;;;;;;104.68;72.45;;;;;;;;;;5035850;28;20480;-75
2022/11/18 06:18:45;;;;;;;92.55;65.35;;;;;;;;;;5034965;28;20124;-76
2022/11/18 06:21:11;;;;;;;90.63;64.57;;;;;;;;;;5035243;28;20029;-76
2022/11/18 06:23:38;;;;;;;98.78;74.15;;;;;;;;;;5034883;28;20080;-77
2022/11/18 06:26:05;;;;;;;121.40;89.97;;;;;;;;;;5035373;28;20037;-76
2022/11/18 06:28:31;;;;;;;128.90;92.70;;;;;;;;;;5035305;28;20032;-77
2022/11/18 06:30:57;;;;;;;145.25;105.25;;;;;;;;;;5035183;28;20033;-74
2022/11/18 06:33:23;;;;;;;144.07;104.40;;;;;;;;;;5034906;28;20021;-75
2022/11/18 06:35:49;;;;;;;153.18;110.85;;;;;;;;;;5035070;28;20053;-75
2022/11/18 06:38:15;;;;;;;153.55;109.30;;;;;;;;;;5025465;28;20018;-74
2022/11/18 06:40:43;;;;;;;135.40;97.78;;;;;;;;;;5030403;28;20048;-77
2022/11/18 06:48:46;;;;;;;130.65;96.80;;;;;;;;;;5034823;28;20162;-78
2022/11/18 06:51:12;;;;;;;133.05;94.28;;;;;;;;;;5034720;28;20025;-76
2022/11/18 06:53:39;;;;;;;136.30;96.18;;;;;;;;;;5034311;28;20041;-76
2022/11/18 06:56:05;;;;;;;125.32;94.20;;;;;;;;;;5034584;28;20480;-75
2022/11/18 06:58:31;;;;;;;119.60;85.38;;;;;;;;;;5034576;28;20100;-77
2022/11/18 07:00:57;;;;;;;106.03;74.90;;;;;;;;;;5034848;28;20087;-75
2022/11/18 07:03:24;;;;;;;102.93;73.13;;;;;;;;;;5034603;28;20120;-76
2022/11/18 07:05:50;;;;;;;135.57;83.85;;;;;;;;;;5034426;28;20051;-76
2022/11/18 07:08:16;;;;;;;112.20;82.78;;;;;;;;;;5034207;28;20018;-74
2022/11/18 07:10:42;;;;;;;119.30;77.85;;;;;;;;;;5034320;28;20025;-76
2022/11/18 07:13:08;;;;;;;111.97;79.10;;;;;;;;;;5034305;28;20029;-77
2022/11/18 07:15:34;;;;;;;113.93;76.38;;;;;;;;;;5034335;28;20052;-76
2022/11/18 07:18:00;;;;;;;122.53;76.65;;;;;;;;;;5033241;28;20034;-77
2022/11/18 07:20:26;;;;;;;113.50;81.72;;;;;;;;;;5034038;28;20034;-72
2022/11/18 07:22:52;;;;;;;126.43;81.80;;;;;;;;;;5034258;28;20010;-76
2022/11/18 07:25:19;;;;;;;110.95;76.18;;;;;;;;;;5033658;28;20029;-76
2022/11/18 07:27:46;;;;;;;111.00;79.97;;;;;;;;;;5034085;28;20013;-72
2022/11/18 07:30:12;;;;;;;112.85;78.70;;;;;;;;;;5033780;28;20033;-76
2022/11/18 07:32:38;;;;;;;299.35;197.10;;;;;;;;;;5033946;28;20025;-77
2022/11/18 07:35:04;;;;;;;180.85;127.90;;;;;;;;;;5034082;28;20029;-77
2022/11/18 07:37:30;;;;;;;143.65;103.38;;;;;;;;;;5033753;28;20487;-77
2022/11/18 07:39:58;;;;;;;130.35;91.80;;;;;;;;;;5033462;28;20498;-77
2022/11/18 07:42:24;;;;;;;134.57;91.43;;;;;;;;;;5034092;28;20408;-76
2022/11/18 07:44:50;;;;;;;136.88;93.57;;;;;;;;;;5031925;28;20053;-74
2022/11/18 07:47:16;;;;;;;141.63;102.75;;;;;;;;;;5033854;28;20071;-74
2022/11/18 07:49:42;;;;;;;150.07;103.35;;;;;;;;;;5033631;28;20092;-76
2022/11/18 07:52:08;;;;;;;146.80;111.53;;;;;;;;;;5033570;28;20104;-76
2022/11/18 07:54:34;;;;;;;155.57;116.10;;;;;;;;;;5033063;28;20057;-72
2022/11/18 07:57:00;;;;;;;146.70;113.20;;;;;;;;;;5032230;28;20017;-76
2022/11/18 07:59:26;;;;;;;143.48;109.85;;;;;;;;;;5033261;28;20385;-72
2022/11/18 08:01:53;;;;;;;139.98;104.47;;;;;;;;;;5033366;28;20075;-78
2022/11/18 08:04:19;;;;;;;162.10;113.78;;;;;;;;;;5033657;28;20021;-76
2022/11/18 08:06:45;;;;;;;148.77;111.28;;;;;;;;;;5033209;28;20121;-76
2022/11/18 08:09:11;;;;;;;146.88;106.82;;;;;;;;;;5033095;28;20030;-77
2022/11/18 08:11:37;;;;;;;163.38;114.75;;;;;;;;;;5033140;28;20026;-75
2022/11/18 08:14:03;;;;;;;131.60;97.70;;;;;;;;;;5033190;28;20018;-77
2022/11/18 08:16:30;;;;;;;128.20;92.75;;;;;;;;;;5033196;28;20029;-76
2022/11/18 08:18:58;;;;;;;126.63;92.80;;;;;;;;;;5032751;28;20049;-76
2022/11/18 08:21:24;;;;;;;138.70;100.32;;;;;;;;;;5031841;28;20030;-72
2022/11/18 08:23:54;;;;;;;181.80;127.40;;;;;;;;;;5031760;28;20029;-76
2022/11/18 08:26:21;;;;;;;153.43;106.35;;;;;;;;;;5032930;28;20491;-76
2022/11/18 08:28:47;;;;;;;104.95;77.18;;;;;;;;;;5032707;28;20097;-76
2022/11/18 08:31:15;;;;;;;139.43;95.32;;;;;;;;;;5033272;28;20041;-76
2022/11/18 08:33:41;;;;;;;119.25;78.53;;;;;;;;;;5032648;28;20100;-77
2022/11/18 08:36:13;;;;;;;110.22;78.40;;;;;;;;;;5032729;28;20021;-75
2022/11/18 08:38:39;;;;;;;163.55;119.90;;;;;;;;;;5033019;28;20096;-75
2022/11/18 08:41:06;;;;;;;104.55;77.50;;;;;;;;;;5032398;28;20071;-76
2022/11/18 08:43:33;;;;;;;109.18;77.95;;;;;;;;;;5032787;28;20022;-76
2022/11/18 08:45:59;;;;;;;95.03;66.07;;;;;;;;;;5032345;28;20057;-74
2022/11/18 08:48:25;;;;;;;94.00;63.60;;;;;;;;;;5032802;28;20079;-75
2022/11/18 08:50:51;;;;;;;96.50;61.85;;;;;;;;;;5032347;28;20032;-76
2022/11/18 08:53:17;;;;;;;105.22;72.55;;;;;;;;;;5031411;28;20097;-77
2022/11/18 08:55:43;;;;;;;95.88;72.22;;;;;;;;;;5032405;28;20395;-77
2022/11/18 08:58:09;;;;;;;127.78;95.53;;;;;;;;;;5036770;28;20079;-77
2022/11/18 09:00:35;;;;;;;128.93;97.70;;;;;;;;;;5036691;28;20048;-77
2022/11/18 09:03:01;;;;;;;151.50;111.32;;;;;;;;;;5036608;28;20474;-77
2022/11/18 09:05:27;;;;;;;112.78;84.43;;;;;;;;;;5036180;28;20033;-76
2022/11/18 09:07:53;;;;;;;115.65;91.20;;;;;;;;;;5035480;28;20506;-77
2022/11/18 09:10:19;;;;;;;140.32;109.32;;;;;;;;;;5036181;28;20533;-77
2022/11/18 09:12:45;;;;;;;140.50;113.35;;;;;;;;;;5035236;28;20471;-76
2022/11/18 09:15:12;;;;;;;137.10;105.05;;;;;;;;;;5035108;28;20046;-77
2022/11/18 09:17:38;;;;;;;124.43;93.72;;;;;;;;;;5035372;28;20476;-76
2022/11/18 09:20:04;;;;;;;114.85;81.55;;;;;;;;;;5036285;28;20488;-77
2022/11/18 09:22:30;;;;;;;94.50;66.03;;;;;;;;;;5036890;28;20025;-76
2022/11/18 09:24:56;;;;;;;77.45;58.10;;;;;;;;;;5035915;28;20068;-73
2022/11/18 09:27:22;;;;;;;87.43;63.17;;;;;;;;;;5036058;28;20021;-72
2022/11/18 09:29:48;;;;;;;100.45;73.63;;;;;;;;;;5034827;28;20095;-76
2022/11/18 09:32:14;;;;;;;100.10;71.03;;;;;;;;;;5036166;28;20400;-76
2022/11/18 09:34:40;;;;;;;81.47;59.85;;;;;;;;;;5035980;28;20461;-72
2022/11/18 09:37:06;;;;;;;79.82;57.38;;;;;;;;;;5036154;28;20049;-72
2022/11/18 09:39:35;;;;;;;77.43;57.90;;;;;;;;;;5035880;28;20021;-75
2022/11/18 09:42:11;;;;;;;78.57;59.35;;;;;;;;;;5035967;28;20755;-76
2022/11/18 09:44:37;;;;;;;88.80;62.40;;;;;;;;;;5034299;28;20021;-75
2022/11/18 09:47:15;;;;;;;79.10;57.55;;;;;;;;;;5035845;28;20033;-73
2022/11/18 09:49:42;;;;;;;89.15;65.68;;;;;;;;;;5035891;28;20013;-76
2022/11/18 09:52:27;;;;;;;97.28;67.22;;;;;;;;;;5035837;28;20083;-75
2022/11/18 09:54:53;;;;;;;95.53;69.40;;;;;;;;;;5035495;28;20017;-72
2022/11/18 09:57:20;;;;;;;98.32;73.50;;;;;;;;;;5035538;28;20026;-74
2022/11/18 09:59:46;;;;;;;84.28;63.72;;;;;;;;;;5035489;28;20029;-76
2022/11/18 10:02:12;;;;;;;87.38;63.80;;;;;;;;;;5034074;28;20046;-74
2022/11/18 10:04:39;;;;;;;79.85;60.10;;;;;;;;;;5035400;28;20021;-75
2022/11/18 10:07:21;;;;;;;83.07;63.40;;;;;;;;;;5020758;28;20036;-75
2022/11/18 10:09:49;;;;;;;151.40;106.63;;;;;;;;;;5034257;28;20048;-75
2022/11/18 10:12:22;;;;;;;115.57;84.75;;;;;;;;;;5035148;28;20025;-75
2022/11/18 10:14:48;;;;;;;90.80;68.88;;;;;;;;;;5023184;28;20075;-76
2022/11/18 10:17:17;;;;;;;186.35;118.30;;;;;;;;;;5033556;28;20036;-77
2022/11/18 10:19:56;;;;;;;121.20;83.57;;;;;;;;;;5035334;28;20480;-76
2022/11/18 10:22:28;;;;;;;95.20;69.88;;;;;;;;;;5034850;28;20025;-72
2022/11/18 10:24:55;;;;;;;116.05;84.95;;;;;;;;;;5035265;28;20032;-76
2022/11/18 10:27:22;;;;;;;125.93;92.55;;;;;;;;;;5033580;28;20052;-75
2022/11/18 10:29:52;;;;;;;132.30;94.72;;;;;;;;;;5034804;28;20063;-74
2022/11/18 10:32:18;;;;;;;153.73;103.68;;;;;;;;;;5034867;28;20032;-76
2022/11/18 10:34:48;;;;;;;112.22;81.95;;;;;;;;;;5034816;28;20025;-76
2022/11/18 10:37:23;;;;;;;111.47;76.07;;;;;;;;;;5020940;28;20022;-76
2022/11/18 10:40:00;;;;;;;147.15;95.90;;;;;;;;;;5034804;28;20029;-76
2022/11/18 10:42:28;;;;;;;112.03;78.88;;;;;;;;;;5034766;28;20028;-76
2022/11/18 10:44:54;;;;;;;119.13;76.28;;;;;;;;;;5034499;28;20498;-76
2022/11/18 10:47:30;;;;;;;112.20;72.38;;;;;;;;;;5034535;28;20383;-75
2022/11/18 10:50:00;;;;;;;134.63;83.93;;;;;;;;;;5034302;28;20044;-76
2022/11/18 10:52:27;;;;;;;104.30;68.00;;;;;;;;;;5034713;28;20032;-76
2022/11/18 10:55:08;;;;;;;98.82;62.88;;;;;;;;;;5034266;28;20021;-76
2022/11/18 10:57:35;;;;;;;48.40;35.22;;;;;;;;;;5034663;28;20034;-76
2022/11/18 11:00:02;;;;;;;96.38;59.33;;;;;;;;;;5033986;28;20488;-75
2022/11/18 11:02:32;;;;;;;131.05;96.78;;;;;;;;;;5034415;28;20055;-78
2022/11/18 11:04:59;;;;;;;80.95;57.88;;;;;;;;;;5033956;28;20057;-78
2022/11/18 11:07:26;;;;;;;55.08;39.08;;;;;;;;;;5034312;28;20025;-78
2022/11/18 11:10:07;;;;;;;60.55;44.50;;;;;;;;;;5034232;28;20545;-79
2022/11/18 11:12:35;;;;;;;41.80;32.63;;;;;;;;;;5034292;28;20033;-72
2022/11/18 11:15:05;;;;;;;69.47;48.83;;;;;;;;;;5034162;28;20075;-77
2022/11/18 11:20:42;;;;;;;76.75;49.75;;;;;;;;;;5033557;28;20028;-77
2022/11/18 11:23:12;;;;;;;107.18;71.55;;;;;;;;;;5033738;28;20026;-77
2022/11/18 11:25:43;;;;;;;92.20;67.60;;;;;;;;;;5033486;28;20032;-76
2022/11/18 11:28:18;;;;;;;101.93;72.57;;;;;;;;;;5033799;28;20033;-74
2022/11/18 11:31:16;;;;;;;86.40;58.58;;;;;;;;;;5033831;28;20032;-76
2022/11/18 11:33:54;;;;;;;120.72;77.53;;;;;;;;;;5031357;28;20120;-75
2022/11/18 11:36:20;;;;;;;115.35;77.78;;;;;;;;;;5031743;28;20048;-78
2022/11/18 11:38:47;;;;;;;95.32;64.18;;;;;;;;;;5031325;28;20018;-72
2022/11/18 11:41:13;;;;;;;110.55;68.65;;;;;;;;;;5031378;28;20021;-77
2022/11/18 11:43:45;;;;;;;86.10;57.55;;;;;;;;;;5031408;28;20069;-76
2022/11/18 11:46:11;;;;;;;62.60;41.72;;;;;;;;;;5031337;28;20123;-76
2022/11/18 11:48:46;;;;;;;73.18;46.88;;;;;;;;;;5031331;28;20152;-75
2022/11/18 11:51:27;;;;;;;75.45;42.88;;;;;;;;;;5031648;28;20033;-78
2022/11/18 11:54:11;;;;;;;71.82;48.45;;;;;;;;;;5031356;28;20144;-72
2022/11/18 11:56:37;;;;;;;85.07;45.90;;;;;;;;;;5030814;28;20465;-79
2022/11/18 11:59:06;;;;;;;73.63;40.63;;;;;;;;;;5031506;28;20104;-74
2022/11/18 12:01:38;;;;;;;82.50;48.55;;;;;;;;;;5030755;28;20083;-73
2022/11/18 12:04:07;;;;;;;73.53;39.88;;;;;;;;;;5031398;28;20100;-76
2022/11/18 12:06:33;;;;;;;83.68;45.92;;;;;;;;;;5030987;28;20044;-76
2022/11/18 12:09:05;;;;;;;78.65;43.20;;;;;;;;;;5030658;28;20417;-76
2022/11/18 12:11:36;;;;;;;61.63;38.78;;;;;;;;;;5031496;28;20451;-75
2022/11/18 12:14:06;;;;;;;57.53;36.17;;;;;;;;;;5033232;28;20048;-76
2022/11/18 12:16:52;;;;;;;59.40;36.33;;;;;;;;;;5033077;28;20937;-75
2022/11/18 12:19:19;;;;;;;52.90;35.13;;;;;;;;;;5020543;28;20060;-75
2022/11/18 12:21:46;;;;;;;64.75;45.60;;;;;;;;;;5032790;28;20027;-76
2022/11/18 12:24:17;;;;;;;80.30;45.58;;;;;;;;;;5032833;28;20033;-77
2022/11/18 12:26:45;;;;;;;51.60;35.58;;;;;;;;;;5032809;28;20097;-79
2022/11/18 12:29:20;;;;;;;71.00;42.92;;;;;;;;;;5032778;28;20025;-76
2022/11/18 12:31:46;;;;;;;57.33;42.28;;;;;;;;;;5033033;28;20033;-78
2022/11/18 12:34:26;;;;;;;62.05;42.83;;;;;;;;;;5032728;28;20018;-77
2022/11/18 12:36:53;;;;;;;50.75;34.50;;;;;;;;;;5032574;28;20026;-77
2022/11/18 12:39:26;;;;;;;42.95;32.15;;;;;;;;;;5032615;28;20426;-75
2022/11/18 12:44:46;;;;;;;56.55;37.22;;;;;;;;;;5032821;28;20036;-73
2022/11/18 12:47:13;;;;;;;67.78;46.42;;;;;;;;;;5032591;28;20527;-73
2022/11/18 12:49:45;;;;;;;65.40;49.20;;;;;;;;;;5018276;28;20024;-75
2022/11/18 12:52:30;;;;;;;58.95;43.15;;;;;;;;;;5032553;28;20025;-75
2022/11/18 12:55:04;;;;;;;69.43;44.13;;;;;;;;;;5032310;28;20021;-73
2022/11/18 12:57:33;;;;;;;103.13;70.60;;;;;;;;;;5031382;28;20077;-77
2022/11/18 13:00:50;;;;;;;106.57;62.25;;;;;;;;;;5032049;28;20029;-74
2022/11/18 13:03:24;;;;;;;103.53;63.60;;;;;;;;;;5029774;28;20090;-76
2022/11/18 13:05:57;;;;;;;97.85;67.88;;;;;;;;;;5030456;28;20048;-77
2022/11/18 13:08:23;;;;;;;91.70;67.65;;;;;;;;;;5029892;28;20037;-72
2022/11/18 13:11:43;;;;;;;85.43;65.95;;;;;;;;;;5030204;28;20499;-73
2022/11/18 13:13:43;;;;;;;80.75;58.20;;;;;;;;;;5029919;28;20052;-79
2022/11/18 13:19:04;;;;;;;117.10;81.57;;;;;;;;;;5030161;28;20028;-77
2022/11/18 13:24:19;;;;;;;131.82;88.07;;;;;;;;;;5024317;28;20092;-77
2022/11/18 13:26:45;;;;;;;127.80;91.03;;;;;;;;;;5022521;28;20144;-73
2022/11/18 13:29:14;;;;;;;140.75;109.40;;;;;;;;;;5030051;28;20029;-75
2022/11/18 13:32:00;;;;;;;131.05;98.45;;;;;;;;;;5029739;28;20045;-75
2022/11/18 13:34:27;;;;;;;176.88;132.73;;;;;;;;;;5029805;28;20535;-75
2022/11/18 13:36:54;;;;;;;175.90;123.15;;;;;;;;;;5021655;28;20038;-75
2022/11/18 13:39:23;;;;;;;171.75;131.70;;;;;;;;;;5029349;28;20013;-76
2022/11/18 13:41:58;;;;;;;152.38;112.65;;;;;;;;;;5031867;28;20437;-75
2022/11/18 13:44:26;;;;;;;184.23;140.80;;;;;;;;;;5035838;28;20048;-77
2022/11/18 13:47:05;;;;;;;181.38;138.98;;;;;;;;;;5034143;28;20030;-76
2022/11/18 13:49:36;;;;;;;168.52;125.78;;;;;;;;;;5035612;28;20095;-75
2022/11/18 13:52:03;;;;;;;165.82;122.20;;;;;;;;;;5035608;28;20025;-76
2022/11/18 13:54:29;;;;;;;151.98;116.30;;;;;;;;;;5035741;28;20029;-75
2022/11/18 13:56:55;;;;;;;151.35;113.90;;;;;;;;;;5035425;28;20489;-78
2022/11/18 13:59:23;;;;;;;161.60;119.28;;;;;;;;;;5035748;28;20036;-78
2022/11/18 14:01:54;;;;;;;175.90;129.68;;;;;;;;;;5035170;28;20400;-77
2022/11/18 14:04:21;;;;;;;180.75;135.45;;;;;;;;;;5035859;28;20407;-78
2022/11/18 14:06:47;;;;;;;179.38;131.00;;;;;;;;;;5035765;28;20116;-78
2022/11/18 14:09:19;;;;;;;148.73;118.38;;;;;;;;;;5035261;28;20047;-73
2022/11/18 14:12:06;;;;;;;160.65;120.93;;;;;;;;;;5035220;28;20163;-77
2022/11/18 14:14:32;;;;;;;169.98;122.50;;;;;;;;;;5034045;28;20419;-78
2022/11/18 14:17:16;;;;;;;195.00;136.65;;;;;;;;;;5035093;28;20071;-78
2022/11/18 14:19:42;;;;;;;214.68;154.50;;;;;;;;;;5034842;28;20084;-78
2022/11/18 14:22:16;;;;;;;228.15;166.77;;;;;;;;;;5021362;28;20106;-77
2022/11/18 14:24:42;;;;;;;233.20;168.63;;;;;;;;;;5034928;28;20116;-77
2022/11/18 14:27:27;;;;;;;249.55;183.38;;;;;;;;;;5034781;28;20087;-76
2022/11/18 14:29:54;;;;;;;269.92;210.05;;;;;;;;;;5035003;28;20492;-76
2022/11/18 14:32:20;;;;;;;256.98;193.18;;;;;;;;;;5035601;28;20037;-76
2022/11/18 14:34:56;;;;;;;262.92;189.98;;;;;;;;;;5034837;28;20113;-72
2022/11/18 14:37:22;;;;;;;268.52;208.27;;;;;;;;;;5034927;28;20017;-77
2022/11/18 14:39:55;;;;;;;107.25;77.15;;;;;;;;;;5034692;28;20036;-76
2022/11/18 14:42:22;;;;;;;47.50;33.55;;;;;;;;;;5034771;28;20472;-76
2022/11/18 14:44:48;;;;;;;43.70;22.08;;;;;;;;;;5034586;28;20489;-77
2022/11/18 14:47:29;;;;;;;25.75;18.35;;;;;;;;;;5033366;28;20500;-77
2022/11/18 14:49:55;;;;;;;38.38;19.60;;;;;;;;;;5034602;28;20021;-76
2022/11/18 14:52:21;;;;;;;28.25;20.90;;;;;;;;;;5034449;28;20025;-79